sensor_id;sensor_type;location;lat;lon;timestamp;P1;durP1;ratioP1;P2;durP2;ratioP2
25127;SDS011;13107;51.304;6.866;2023-05-07T00:02:59;7.62;;;2.50;;
25127;SDS011;13107;51.304;6.866;2023-05-07T00:07:02;5.20;;;2.58;;
25127;SDS011;13107;51.304;6.866;2023-05-07T00:11:04;4.50;;;2.00;;
25127;SDS011;13107;51.304;6.866;2023-05-07T00:15:06;5.68;;;2.17;;
25127;SDS011;13107;51.304;6.866;2023-05-07T00:19:09;4.93;;;2.17;;
25127;SDS011;13107;51.304;6.866;2023-05-07T00:23:11;3.92;;;2.22;;
25127;SDS011;13107;51.304;6.866;2023-05-07T00:27:12;2.87;;;2.50;;
25127;SDS011;13107;51.304;6.866;2023-05-07T00:31:14;5.47;;;2.45;;
25127;SDS011;13107;51.304;6.866;2023-05-07T00:35:16;4.30;;;3.00;;
25127;SDS011;13107;51.304;6.866;2023-05-07T00:39:17;3.17;;;2.20;;
25127;SDS011;13107;51.304;6.866;2023-05-07T00:43:19;4.43;;;2.62;;
25127;SDS011;13107;51.304;6.866;2023-05-07T00:47:21;6.97;;;2.70;;
25127;SDS011;13107;51.304;6.866;2023-05-07T00:51:23;2.55;;;2.03;;
25127;SDS011;13107;51.304;6.866;2023-05-07T00:55:26;4.93;;;2.30;;
25127;SDS011;13107;51.304;6.866;2023-05-07T00:59:28;6.05;;;2.67;;
25127;SDS011;13107;51.304;6.866;2023-05-07T01:03:29;7.97;;;2.35;;
25127;SDS011;13107;51.304;6.866;2023-05-07T01:07:32;4.25;;;2.08;;
25127;SDS011;13107;51.304;6.866;2023-05-07T01:11:34;4.35;;;2.30;;
25127;SDS011;13107;51.304;6.866;2023-05-07T01:15:36;2.33;;;2.12;;
25127;SDS011;13107;51.304;6.866;2023-05-07T01:19:38;6.80;;;2.45;;
25127;SDS011;13107;51.304;6.866;2023-05-07T01:23:40;5.43;;;2.60;;
25127;SDS011;13107;51.304;6.866;2023-05-07T01:27:42;6.40;;;2.55;;
25127;SDS011;13107;51.304;6.866;2023-05-07T01:31:44;7.12;;;2.53;;
25127;SDS011;13107;51.304;6.866;2023-05-07T01:35:48;4.10;;;2.35;;
25127;SDS011;13107;51.304;6.866;2023-05-07T01:39:52;5.62;;;2.50;;
25127;SDS011;13107;51.304;6.866;2023-05-07T01:43:54;4.90;;;2.60;;
25127;SDS011;13107;51.304;6.866;2023-05-07T01:47:58;5.35;;;2.60;;
25127;SDS011;13107;51.304;6.866;2023-05-07T01:52:00;3.35;;;2.53;;
25127;SDS011;13107;51.304;6.866;2023-05-07T01:56:03;10.75;;;2.90;;
25127;SDS011;13107;51.304;6.866;2023-05-07T02:00:05;9.45;;;2.67;;
25127;SDS011;13107;51.304;6.866;2023-05-07T02:04:07;5.62;;;2.50;;
25127;SDS011;13107;51.304;6.866;2023-05-07T02:08:09;2.60;;;2.30;;
25127;SDS011;13107;51.304;6.866;2023-05-07T02:12:11;5.25;;;2.65;;
25127;SDS011;13107;51.304;6.866;2023-05-07T02:16:12;7.45;;;2.90;;
25127;SDS011;13107;51.304;6.866;2023-05-07T02:20:15;4.57;;;2.60;;
25127;SDS011;13107;51.304;6.866;2023-05-07T02:24:17;6.53;;;2.72;;
25127;SDS011;13107;51.304;6.866;2023-05-07T02:28:19;13.35;;;3.40;;
25127;SDS011;13107;51.304;6.866;2023-05-07T02:32:20;6.62;;;2.50;;
25127;SDS011;13107;51.304;6.866;2023-05-07T02:36:24;4.47;;;2.28;;
25127;SDS011;13107;51.304;6.866;2023-05-07T02:40:25;5.53;;;3.03;;
25127;SDS011;13107;51.304;6.866;2023-05-07T02:44:27;5.40;;;2.20;;
25127;SDS011;13107;51.304;6.866;2023-05-07T02:48:32;5.43;;;2.40;;
25127;SDS011;13107;51.304;6.866;2023-05-07T02:52:34;5.55;;;2.37;;
25127;SDS011;13107;51.304;6.866;2023-05-07T02:56:36;5.20;;;2.85;;
25127;SDS011;13107;51.304;6.866;2023-05-07T03:00:37;4.20;;;2.08;;
25127;SDS011;13107;51.304;6.866;2023-05-07T03:04:39;5.10;;;2.47;;
25127;SDS011;13107;51.304;6.866;2023-05-07T03:08:41;5.72;;;2.20;;
25127;SDS011;13107;51.304;6.866;2023-05-07T03:12:42;6.53;;;2.92;;
25127;SDS011;13107;51.304;6.866;2023-05-07T03:16:44;4.35;;;2.70;;
25127;SDS011;13107;51.304;6.866;2023-05-07T03:20:47;8.15;;;3.08;;
25127;SDS011;13107;51.304;6.866;2023-05-07T03:24:49;5.10;;;2.70;;
25127;SDS011;13107;51.304;6.866;2023-05-07T03:28:51;5.80;;;3.10;;
25127;SDS011;13107;51.304;6.866;2023-05-07T03:32:53;6.65;;;2.62;;
25127;SDS011;13107;51.304;6.866;2023-05-07T03:36:55;5.30;;;2.95;;
25127;SDS011;13107;51.304;6.866;2023-05-07T03:40:57;4.90;;;2.60;;
25127;SDS011;13107;51.304;6.866;2023-05-07T03:44:59;7.20;;;2.35;;
25127;SDS011;13107;51.304;6.866;2023-05-07T03:49:00;3.42;;;2.45;;
25127;SDS011;13107;51.304;6.866;2023-05-07T03:53:02;6.62;;;2.90;;
25127;SDS011;13107;51.304;6.866;2023-05-07T03:57:04;6.40;;;2.97;;
25127;SDS011;13107;51.304;6.866;2023-05-07T04:01:05;4.20;;;2.45;;
25127;SDS011;13107;51.304;6.866;2023-05-07T04:05:08;6.28;;;3.10;;
25127;SDS011;13107;51.304;6.866;2023-05-07T04:09:10;4.78;;;2.67;;
25127;SDS011;13107;51.304;6.866;2023-05-07T04:13:12;17.80;;;3.45;;
25127;SDS011;13107;51.304;6.866;2023-05-07T04:17:14;10.77;;;2.90;;
25127;SDS011;13107;51.304;6.866;2023-05-07T04:21:16;8.57;;;2.85;;
25127;SDS011;13107;51.304;6.866;2023-05-07T04:25:21;10.15;;;2.95;;
25127;SDS011;13107;51.304;6.866;2023-05-07T04:29:27;5.75;;;2.50;;
25127;SDS011;13107;51.304;6.866;2023-05-07T04:33:29;3.87;;;2.22;;
25127;SDS011;13107;51.304;6.866;2023-05-07T04:37:32;3.33;;;2.33;;
25127;SDS011;13107;51.304;6.866;2023-05-07T04:41:35;5.65;;;2.40;;
25127;SDS011;13107;51.304;6.866;2023-05-07T04:45:37;8.43;;;2.70;;
25127;SDS011;13107;51.304;6.866;2023-05-07T04:49:41;7.87;;;2.85;;
25127;SDS011;13107;51.304;6.866;2023-05-07T04:53:43;2.92;;;2.20;;
25127;SDS011;13107;51.304;6.866;2023-05-07T04:57:45;3.78;;;2.50;;
25127;SDS011;13107;51.304;6.866;2023-05-07T05:01:46;4.65;;;1.98;;
25127;SDS011;13107;51.304;6.866;2023-05-07T05:05:51;5.43;;;2.10;;
25127;SDS011;13107;51.304;6.866;2023-05-07T05:09:54;8.32;;;2.28;;
25127;SDS011;13107;51.304;6.866;2023-05-07T05:13:56;4.07;;;2.60;;
25127;SDS011;13107;51.304;6.866;2023-05-07T05:17:58;6.20;;;2.50;;
25127;SDS011;13107;51.304;6.866;2023-05-07T05:22:00;3.30;;;1.80;;
25127;SDS011;13107;51.304;6.866;2023-05-07T05:26:02;3.05;;;2.47;;
25127;SDS011;13107;51.304;6.866;2023-05-07T05:30:04;4.40;;;2.42;;
25127;SDS011;13107;51.304;6.866;2023-05-07T05:34:06;6.12;;;2.37;;
25127;SDS011;13107;51.304;6.866;2023-05-07T05:38:08;5.07;;;2.12;;
25127;SDS011;13107;51.304;6.866;2023-05-07T05:42:10;6.30;;;2.20;;
25127;SDS011;13107;51.304;6.866;2023-05-07T05:46:11;3.53;;;1.92;;
25127;SDS011;13107;51.304;6.866;2023-05-07T05:50:13;4.03;;;1.98;;
25127;SDS011;13107;51.304;6.866;2023-05-07T05:54:16;5.53;;;2.33;;
25127;SDS011;13107;51.304;6.866;2023-05-07T05:58:18;5.62;;;2.30;;
25127;SDS011;13107;51.304;6.866;2023-05-07T06:02:20;5.40;;;1.87;;
25127;SDS011;13107;51.304;6.866;2023-05-07T06:06:22;2.75;;;1.48;;
25127;SDS011;13107;51.304;6.866;2023-05-07T06:10:23;4.32;;;1.87;;
25127;SDS011;13107;51.304;6.866;2023-05-07T06:14:25;3.90;;;2.12;;
25127;SDS011;13107;51.304;6.866;2023-05-07T06:18:27;3.37;;;1.60;;
25127;SDS011;13107;51.304;6.866;2023-05-07T06:22:28;2.67;;;1.42;;
25127;SDS011;13107;51.304;6.866;2023-05-07T06:26:30;2.00;;;1.35;;
25127;SDS011;13107;51.304;6.866;2023-05-07T06:30:32;1.95;;;1.60;;
25127;SDS011;13107;51.304;6.866;2023-05-07T06:34:34;2.65;;;1.40;;
25127;SDS011;13107;51.304;6.866;2023-05-07T06:38:35;2.28;;;1.70;;
25127;SDS011;13107;51.304;6.866;2023-05-07T06:42:37;2.55;;;1.40;;
25127;SDS011;13107;51.304;6.866;2023-05-07T06:46:39;4.47;;;1.40;;
25127;SDS011;13107;51.304;6.866;2023-05-07T06:50:41;2.95;;;1.35;;
25127;SDS011;13107;51.304;6.866;2023-05-07T06:54:43;4.68;;;1.45;;
25127;SDS011;13107;51.304;6.866;2023-05-07T06:58:44;4.60;;;1.35;;
25127;SDS011;13107;51.304;6.866;2023-05-07T07:02:46;2.65;;;1.20;;
25127;SDS011;13107;51.304;6.866;2023-05-07T07:06:48;1.77;;;1.30;;
25127;SDS011;13107;51.304;6.866;2023-05-07T07:10:50;3.75;;;1.70;;
25127;SDS011;13107;51.304;6.866;2023-05-07T07:14:51;2.58;;;1.48;;
25127;SDS011;13107;51.304;6.866;2023-05-07T07:18:55;4.47;;;1.30;;
25127;SDS011;13107;51.304;6.866;2023-05-07T07:22:57;4.43;;;1.40;;
25127;SDS011;13107;51.304;6.866;2023-05-07T07:26:58;6.75;;;1.40;;
25127;SDS011;13107;51.304;6.866;2023-05-07T07:31:00;2.78;;;1.30;;
25127;SDS011;13107;51.304;6.866;2023-05-07T07:35:02;4.68;;;1.40;;
25127;SDS011;13107;51.304;6.866;2023-05-07T07:39:03;2.78;;;1.17;;
25127;SDS011;13107;51.304;6.866;2023-05-07T07:43:05;4.95;;;1.30;;
25127;SDS011;13107;51.304;6.866;2023-05-07T07:47:07;2.58;;;1.15;;
25127;SDS011;13107;51.304;6.866;2023-05-07T07:51:09;2.50;;;1.17;;
25127;SDS011;13107;51.304;6.866;2023-05-07T07:55:11;2.53;;;1.25;;
25127;SDS011;13107;51.304;6.866;2023-05-07T07:59:13;2.62;;;1.02;;
25127;SDS011;13107;51.304;6.866;2023-05-07T08:03:18;3.35;;;1.23;;
25127;SDS011;13107;51.304;6.866;2023-05-07T08:07:20;3.62;;;1.20;;
25127;SDS011;13107;51.304;6.866;2023-05-07T08:11:23;2.08;;;1.10;;
25127;SDS011;13107;51.304;6.866;2023-05-07T08:15:26;2.97;;;1.10;;
25127;SDS011;13107;51.304;6.866;2023-05-07T08:19:28;1.95;;;1.40;;
25127;SDS011;13107;51.304;6.866;2023-05-07T08:23:29;3.53;;;1.20;;
25127;SDS011;13107;51.304;6.866;2023-05-07T08:27:31;4.28;;;1.20;;
25127;SDS011;13107;51.304;6.866;2023-05-07T08:31:33;2.78;;;1.12;;
25127;SDS011;13107;51.304;6.866;2023-05-07T08:35:35;2.70;;;1.02;;
25127;SDS011;13107;51.304;6.866;2023-05-07T08:39:36;4.93;;;1.30;;
25127;SDS011;13107;51.304;6.866;2023-05-07T08:43:38;2.33;;;0.88;;
25127;SDS011;13107;51.304;6.866;2023-05-07T08:47:43;2.37;;;1.10;;
25127;SDS011;13107;51.304;6.866;2023-05-07T08:51:47;2.20;;;1.12;;
25127;SDS011;13107;51.304;6.866;2023-05-07T08:55:49;1.30;;;0.88;;
25127;SDS011;13107;51.304;6.866;2023-05-07T08:59:52;2.05;;;0.80;;
25127;SDS011;13107;51.304;6.866;2023-05-07T09:03:54;3.78;;;1.00;;
25127;SDS011;13107;51.304;6.866;2023-05-07T09:07:58;1.55;;;0.95;;
25127;SDS011;13107;51.304;6.866;2023-05-07T09:12:01;3.42;;;1.33;;
25127;SDS011;13107;51.304;6.866;2023-05-07T09:16:11;2.17;;;0.98;;
25127;SDS011;13107;51.304;6.866;2023-05-07T09:20:13;2.55;;;0.80;;
25127;SDS011;13107;51.304;6.866;2023-05-07T09:24:15;3.78;;;1.37;;
25127;SDS011;13107;51.304;6.866;2023-05-07T09:28:18;2.72;;;0.80;;
25127;SDS011;13107;51.304;6.866;2023-05-07T09:32:19;3.05;;;0.80;;
25127;SDS011;13107;51.304;6.866;2023-05-07T09:36:21;1.67;;;0.80;;
25127;SDS011;13107;51.304;6.866;2023-05-07T09:40:24;2.65;;;1.08;;
25127;SDS011;13107;51.304;6.866;2023-05-07T09:44:27;1.95;;;0.90;;
25127;SDS011;13107;51.304;6.866;2023-05-07T09:48:29;2.40;;;1.05;;
25127;SDS011;13107;51.304;6.866;2023-05-07T09:52:31;0.73;;;0.70;;
25127;SDS011;13107;51.304;6.866;2023-05-07T09:56:36;3.08;;;0.88;;
25127;SDS011;13107;51.304;6.866;2023-05-07T10:00:39;2.80;;;0.70;;
25127;SDS011;13107;51.304;6.866;2023-05-07T10:04:42;1.98;;;0.85;;
25127;SDS011;13107;51.304;6.866;2023-05-07T10:08:44;2.35;;;0.90;;
25127;SDS011;13107;51.304;6.866;2023-05-07T10:12:46;4.90;;;1.05;;
25127;SDS011;13107;51.304;6.866;2023-05-07T10:16:48;2.15;;;0.75;;
25127;SDS011;13107;51.304;6.866;2023-05-07T10:20:51;1.42;;;0.70;;
25127;SDS011;13107;51.304;6.866;2023-05-07T10:24:54;3.55;;;0.80;;
25127;SDS011;13107;51.304;6.866;2023-05-07T10:29:04;0.95;;;0.73;;
25127;SDS011;13107;51.304;6.866;2023-05-07T10:33:13;4.18;;;0.88;;
25127;SDS011;13107;51.304;6.866;2023-05-07T10:37:18;3.58;;;0.80;;
25127;SDS011;13107;51.304;6.866;2023-05-07T10:41:20;3.03;;;0.77;;
25127;SDS011;13107;51.304;6.866;2023-05-07T10:45:22;2.05;;;0.70;;
25127;SDS011;13107;51.304;6.866;2023-05-07T10:49:24;3.92;;;0.88;;
25127;SDS011;13107;51.304;6.866;2023-05-07T10:53:26;2.65;;;0.62;;
25127;SDS011;13107;51.304;6.866;2023-05-07T11:01:49;1.58;;;0.55;;
25127;SDS011;13107;51.304;6.866;2023-05-07T11:06:14;2.60;;;0.90;;
25127;SDS011;13107;51.304;6.866;2023-05-07T11:10:17;2.83;;;0.80;;
25127;SDS011;13107;51.304;6.866;2023-05-07T11:18:47;2.60;;;0.80;;
25127;SDS011;13107;51.304;6.866;2023-05-07T11:22:53;3.17;;;0.80;;
25127;SDS011;13107;51.304;6.866;2023-05-07T11:26:56;2.87;;;0.75;;
25127;SDS011;13107;51.304;6.866;2023-05-07T11:30:59;1.37;;;0.70;;
25127;SDS011;13107;51.304;6.866;2023-05-07T11:35:01;0.93;;;0.60;;
25127;SDS011;13107;51.304;6.866;2023-05-07T11:39:03;1.05;;;0.65;;
25127;SDS011;13107;51.304;6.866;2023-05-07T11:43:11;3.03;;;0.77;;
25127;SDS011;13107;51.304;6.866;2023-05-07T11:47:19;1.55;;;0.65;;
25127;SDS011;13107;51.304;6.866;2023-05-07T11:51:22;1.52;;;0.75;;
25127;SDS011;13107;51.304;6.866;2023-05-07T11:55:27;3.30;;;1.02;;
25127;SDS011;13107;51.304;6.866;2023-05-07T11:59:29;3.62;;;0.88;;
25127;SDS011;13107;51.304;6.866;2023-05-07T12:03:30;2.05;;;0.90;;
25127;SDS011;13107;51.304;6.866;2023-05-07T12:07:36;1.47;;;0.80;;
25127;SDS011;13107;51.304;6.866;2023-05-07T12:11:38;3.72;;;0.80;;
25127;SDS011;13107;51.304;6.866;2023-05-07T12:15:41;3.45;;;0.90;;
25127;SDS011;13107;51.304;6.866;2023-05-07T12:19:44;3.60;;;1.05;;
25127;SDS011;13107;51.304;6.866;2023-05-07T12:23:46;2.42;;;1.10;;
25127;SDS011;13107;51.304;6.866;2023-05-07T12:27:52;2.92;;;1.30;;
25127;SDS011;13107;51.304;6.866;2023-05-07T12:31:54;1.70;;;0.95;;
25127;SDS011;13107;51.304;6.866;2023-05-07T12:35:56;2.62;;;1.58;;
25127;SDS011;13107;51.304;6.866;2023-05-07T12:40:04;5.30;;;1.62;;
25127;SDS011;13107;51.304;6.866;2023-05-07T12:44:11;4.10;;;1.50;;
25127;SDS011;13107;51.304;6.866;2023-05-07T12:48:16;2.20;;;1.30;;
25127;SDS011;13107;51.304;6.866;2023-05-07T12:52:18;3.17;;;1.40;;
25127;SDS011;13107;51.304;6.866;2023-05-07T12:56:21;2.80;;;1.37;;
25127;SDS011;13107;51.304;6.866;2023-05-07T13:00:34;3.25;;;1.90;;
25127;SDS011;13107;51.304;6.866;2023-05-07T13:04:39;2.37;;;1.57;;
25127;SDS011;13107;51.304;6.866;2023-05-07T13:08:41;6.40;;;2.47;;
25127;SDS011;13107;51.304;6.866;2023-05-07T13:12:46;4.78;;;2.10;;
25127;SDS011;13107;51.304;6.866;2023-05-07T13:16:48;4.20;;;1.90;;
25127;SDS011;13107;51.304;6.866;2023-05-07T13:20:50;13.00;;;3.87;;
25127;SDS011;13107;51.304;6.866;2023-05-07T13:24:52;15.05;;;5.22;;
25127;SDS011;13107;51.304;6.866;2023-05-07T13:28:54;11.15;;;6.20;;
25127;SDS011;13107;51.304;6.866;2023-05-07T13:32:56;14.15;;;6.10;;
25127;SDS011;13107;51.304;6.866;2023-05-07T13:36:57;17.80;;;6.57;;
25127;SDS011;13107;51.304;6.866;2023-05-07T13:40:59;14.38;;;7.10;;
25127;SDS011;13107;51.304;6.866;2023-05-07T13:45:01;13.98;;;7.10;;
25127;SDS011;13107;51.304;6.866;2023-05-07T13:49:06;15.10;;;8.50;;
25127;SDS011;13107;51.304;6.866;2023-05-07T13:53:07;18.75;;;12.05;;
25127;SDS011;13107;51.304;6.866;2023-05-07T13:57:09;25.85;;;14.95;;
25127;SDS011;13107;51.304;6.866;2023-05-07T14:01:11;21.58;;;15.13;;
25127;SDS011;13107;51.304;6.866;2023-05-07T14:05:13;25.60;;;15.93;;
25127;SDS011;13107;51.304;6.866;2023-05-07T14:09:15;24.23;;;15.75;;
25127;SDS011;13107;51.304;6.866;2023-05-07T14:13:17;19.62;;;15.85;;
25127;SDS011;13107;51.304;6.866;2023-05-07T14:17:18;24.67;;;17.48;;
25127;SDS011;13107;51.304;6.866;2023-05-07T14:21:21;27.20;;;19.83;;
25127;SDS011;13107;51.304;6.866;2023-05-07T14:25:23;28.58;;;17.25;;
25127;SDS011;13107;51.304;6.866;2023-05-07T14:29:24;26.23;;;16.65;;
25127;SDS011;13107;51.304;6.866;2023-05-07T14:33:26;25.88;;;17.27;;
25127;SDS011;13107;51.304;6.866;2023-05-07T14:37:28;22.62;;;16.55;;
25127;SDS011;13107;51.304;6.866;2023-05-07T14:41:30;24.98;;;17.50;;
25127;SDS011;13107;51.304;6.866;2023-05-07T14:45:32;22.75;;;17.35;;
25127;SDS011;13107;51.304;6.866;2023-05-07T14:49:35;21.73;;;16.15;;
25127;SDS011;13107;51.304;6.866;2023-05-07T14:53:37;20.95;;;15.63;;
25127;SDS011;13107;51.304;6.866;2023-05-07T14:57:38;20.50;;;15.00;;
25127;SDS011;13107;51.304;6.866;2023-05-07T15:01:41;18.00;;;14.10;;
25127;SDS011;13107;51.304;6.866;2023-05-07T15:05:46;17.95;;;14.35;;
25127;SDS011;13107;51.304;6.866;2023-05-07T15:09:48;22.13;;;14.77;;
25127;SDS011;13107;51.304;6.866;2023-05-07T15:13:49;16.08;;;14.20;;
25127;SDS011;13107;51.304;6.866;2023-05-07T15:17:51;31.83;;;25.05;;
25127;SDS011;13107;51.304;6.866;2023-05-07T15:21:53;23.10;;;18.00;;
25127;SDS011;13107;51.304;6.866;2023-05-07T15:25:54;28.23;;;20.20;;
25127;SDS011;13107;51.304;6.866;2023-05-07T15:29:57;23.58;;;17.87;;
25127;SDS011;13107;51.304;6.866;2023-05-07T15:33:59;21.58;;;17.55;;
25127;SDS011;13107;51.304;6.866;2023-05-07T15:38:01;20.83;;;15.00;;
25127;SDS011;13107;51.304;6.866;2023-05-07T15:42:04;26.85;;;17.08;;
25127;SDS011;13107;51.304;6.866;2023-05-07T15:46:05;15.88;;;14.00;;
25127;SDS011;13107;51.304;6.866;2023-05-07T15:50:07;21.55;;;16.67;;
25127;SDS011;13107;51.304;6.866;2023-05-07T15:54:09;23.02;;;17.70;;
25127;SDS011;13107;51.304;6.866;2023-05-07T15:58:11;23.33;;;17.23;;
25127;SDS011;13107;51.304;6.866;2023-05-07T16:02:13;23.35;;;17.87;;
25127;SDS011;13107;51.304;6.866;2023-05-07T16:06:14;22.65;;;16.27;;
25127;SDS011;13107;51.304;6.866;2023-05-07T16:10:16;16.83;;;13.80;;
25127;SDS011;13107;51.304;6.866;2023-05-07T16:14:18;18.25;;;14.65;;
25127;SDS011;13107;51.304;6.866;2023-05-07T16:18:20;18.90;;;15.65;;
25127;SDS011;13107;51.304;6.866;2023-05-07T16:22:22;19.27;;;14.98;;
25127;SDS011;13107;51.304;6.866;2023-05-07T16:26:25;12.50;;;10.43;;
25127;SDS011;13107;51.304;6.866;2023-05-07T16:30:27;15.65;;;11.88;;
25127;SDS011;13107;51.304;6.866;2023-05-07T16:34:29;11.60;;;10.40;;
25127;SDS011;13107;51.304;6.866;2023-05-07T16:38:32;14.65;;;10.35;;
25127;SDS011;13107;51.304;6.866;2023-05-07T16:42:34;17.62;;;11.98;;
25127;SDS011;13107;51.304;6.866;2023-05-07T16:46:36;13.00;;;10.20;;
25127;SDS011;13107;51.304;6.866;2023-05-07T16:50:38;11.98;;;8.50;;
25127;SDS011;13107;51.304;6.866;2023-05-07T16:54:41;8.88;;;7.03;;
25127;SDS011;13107;51.304;6.866;2023-05-07T16:58:43;9.48;;;8.15;;
25127;SDS011;13107;51.304;6.866;2023-05-07T17:02:44;10.27;;;8.15;;
25127;SDS011;13107;51.304;6.866;2023-05-07T17:06:47;11.10;;;8.23;;
25127;SDS011;13107;51.304;6.866;2023-05-07T17:10:48;12.27;;;8.50;;
25127;SDS011;13107;51.304;6.866;2023-05-07T17:14:50;7.50;;;6.70;;
25127;SDS011;13107;51.304;6.866;2023-05-07T17:18:52;10.27;;;8.93;;
25127;SDS011;13107;51.304;6.866;2023-05-07T17:22:54;12.32;;;8.95;;
25127;SDS011;13107;51.304;6.866;2023-05-07T17:26:55;10.00;;;9.00;;
25127;SDS011;13107;51.304;6.866;2023-05-07T17:30:57;10.75;;;8.13;;
25127;SDS011;13107;51.304;6.866;2023-05-07T17:34:59;9.05;;;7.28;;
25127;SDS011;13107;51.304;6.866;2023-05-07T17:39:02;10.30;;;7.72;;
25127;SDS011;13107;51.304;6.866;2023-05-07T17:43:04;10.63;;;7.85;;
25127;SDS011;13107;51.304;6.866;2023-05-07T17:47:06;9.82;;;7.07;;
25127;SDS011;13107;51.304;6.866;2023-05-07T17:51:08;10.73;;;7.18;;
25127;SDS011;13107;51.304;6.866;2023-05-07T17:55:10;9.43;;;6.90;;
25127;SDS011;13107;51.304;6.866;2023-05-07T17:59:12;7.55;;;6.85;;
25127;SDS011;13107;51.304;6.866;2023-05-07T18:03:14;8.70;;;6.93;;
25127;SDS011;13107;51.304;6.866;2023-05-07T18:07:16;9.10;;;7.60;;
25127;SDS011;13107;51.304;6.866;2023-05-07T18:11:18;8.18;;;7.20;;
25127;SDS011;13107;51.304;6.866;2023-05-07T18:15:20;10.27;;;7.53;;
25127;SDS011;13107;51.304;6.866;2023-05-07T18:19:21;11.00;;;9.00;;
25127;SDS011;13107;51.304;6.866;2023-05-07T18:23:23;12.82;;;8.43;;
25127;SDS011;13107;51.304;6.866;2023-05-07T18:27:25;10.77;;;9.05;;
25127;SDS011;13107;51.304;6.866;2023-05-07T18:31:27;11.07;;;9.90;;
25127;SDS011;13107;51.304;6.866;2023-05-07T18:35:29;11.50;;;9.85;;
25127;SDS011;13107;51.304;6.866;2023-05-07T18:39:31;10.75;;;9.65;;
25127;SDS011;13107;51.304;6.866;2023-05-07T18:43:35;11.57;;;8.95;;
25127;SDS011;13107;51.304;6.866;2023-05-07T18:47:36;12.23;;;9.23;;
25127;SDS011;13107;51.304;6.866;2023-05-07T18:51:38;13.35;;;9.38;;
25127;SDS011;13107;51.304;6.866;2023-05-07T18:55:40;11.68;;;10.15;;
25127;SDS011;13107;51.304;6.866;2023-05-07T18:59:41;13.18;;;11.60;;
25127;SDS011;13107;51.304;6.866;2023-05-07T19:03:43;12.90;;;11.50;;
25127;SDS011;13107;51.304;6.866;2023-05-07T19:07:45;13.07;;;9.80;;
25127;SDS011;13107;51.304;6.866;2023-05-07T19:11:51;11.10;;;10.10;;
25127;SDS011;13107;51.304;6.866;2023-05-07T19:15:52;14.05;;;12.10;;
25127;SDS011;13107;51.304;6.866;2023-05-07T19:19:55;13.68;;;11.80;;
25127;SDS011;13107;51.304;6.866;2023-05-07T19:23:56;11.82;;;10.63;;
25127;SDS011;13107;51.304;6.866;2023-05-07T19:27:58;12.13;;;10.75;;
25127;SDS011;13107;51.304;6.866;2023-05-07T19:32:00;12.10;;;10.82;;
25127;SDS011;13107;51.304;6.866;2023-05-07T19:36:02;9.98;;;8.98;;
25127;SDS011;13107;51.304;6.866;2023-05-07T19:40:04;10.38;;;9.23;;
25127;SDS011;13107;51.304;6.866;2023-05-07T19:44:07;12.32;;;9.48;;
25127;SDS011;13107;51.304;6.866;2023-05-07T19:48:09;13.00;;;9.75;;
25127;SDS011;13107;51.304;6.866;2023-05-07T19:52:11;10.43;;;9.23;;
25127;SDS011;13107;51.304;6.866;2023-05-07T19:56:12;10.18;;;9.20;;
25127;SDS011;13107;51.304;6.866;2023-05-07T20:00:15;12.95;;;9.10;;
25127;SDS011;13107;51.304;6.866;2023-05-07T20:04:17;14.20;;;10.85;;
25127;SDS011;13107;51.304;6.866;2023-05-07T20:08:19;16.83;;;10.07;;
25127;SDS011;13107;51.304;6.866;2023-05-07T20:12:21;11.43;;;9.43;;
25127;SDS011;13107;51.304;6.866;2023-05-07T20:16:22;13.13;;;10.70;;
25127;SDS011;13107;51.304;6.866;2023-05-07T20:20:24;18.12;;;10.90;;
25127;SDS011;13107;51.304;6.866;2023-05-07T20:24:26;11.73;;;10.05;;
25127;SDS011;13107;51.304;6.866;2023-05-07T20:28:28;16.23;;;11.23;;
25127;SDS011;13107;51.304;6.866;2023-05-07T20:32:29;12.88;;;11.02;;
25127;SDS011;13107;51.304;6.866;2023-05-07T20:36:31;12.35;;;10.27;;
25127;SDS011;13107;51.304;6.866;2023-05-07T20:40:33;11.23;;;9.32;;
25127;SDS011;13107;51.304;6.866;2023-05-07T20:44:37;13.55;;;11.02;;
25127;SDS011;13107;51.304;6.866;2023-05-07T20:48:39;13.70;;;9.70;;
25127;SDS011;13107;51.304;6.866;2023-05-07T20:52:41;12.77;;;9.85;;
25127;SDS011;13107;51.304;6.866;2023-05-07T20:56:42;12.37;;;10.65;;
25127;SDS011;13107;51.304;6.866;2023-05-07T21:00:44;12.93;;;9.90;;
25127;SDS011;13107;51.304;6.866;2023-05-07T21:04:46;15.90;;;9.90;;
25127;SDS011;13107;51.304;6.866;2023-05-07T21:08:51;16.42;;;10.63;;
25127;SDS011;13107;51.304;6.866;2023-05-07T21:12:53;10.55;;;9.43;;
25127;SDS011;13107;51.304;6.866;2023-05-07T21:16:55;11.73;;;10.35;;
25127;SDS011;13107;51.304;6.866;2023-05-07T21:20:57;12.15;;;10.07;;
25127;SDS011;13107;51.304;6.866;2023-05-07T21:24:59;14.75;;;9.63;;
25127;SDS011;13107;51.304;6.866;2023-05-07T21:29:01;11.10;;;9.73;;
25127;SDS011;13107;51.304;6.866;2023-05-07T21:33:03;10.70;;;9.45;;
25127;SDS011;13107;51.304;6.866;2023-05-07T21:37:08;12.10;;;9.93;;
25127;SDS011;13107;51.304;6.866;2023-05-07T21:41:10;14.00;;;10.75;;
25127;SDS011;13107;51.304;6.866;2023-05-07T21:45:12;14.30;;;10.55;;
25127;SDS011;13107;51.304;6.866;2023-05-07T21:49:14;11.73;;;10.13;;
25127;SDS011;13107;51.304;6.866;2023-05-07T21:53:16;13.23;;;10.00;;
25127;SDS011;13107;51.304;6.866;2023-05-07T21:57:17;15.93;;;9.77;;
25127;SDS011;13107;51.304;6.866;2023-05-07T22:01:19;12.80;;;9.98;;
25127;SDS011;13107;51.304;6.866;2023-05-07T22:05:21;13.88;;;9.02;;
25127;SDS011;13107;51.304;6.866;2023-05-07T22:09:23;9.63;;;8.68;;
25127;SDS011;13107;51.304;6.866;2023-05-07T22:13:25;13.40;;;10.63;;
25127;SDS011;13107;51.304;6.866;2023-05-07T22:17:27;12.20;;;10.98;;
25127;SDS011;13107;51.304;6.866;2023-05-07T22:21:28;12.95;;;10.50;;
25127;SDS011;13107;51.304;6.866;2023-05-07T22:25:32;11.38;;;10.20;;
25127;SDS011;13107;51.304;6.866;2023-05-07T22:29:36;15.45;;;10.48;;
25127;SDS011;13107;51.304;6.866;2023-05-07T22:33:38;14.35;;;11.85;;
25127;SDS011;13107;51.304;6.866;2023-05-07T22:37:40;13.20;;;11.77;;
25127;SDS011;13107;51.304;6.866;2023-05-07T22:41:42;11.68;;;10.48;;
25127;SDS011;13107;51.304;6.866;2023-05-07T22:45:44;14.38;;;11.73;;
25127;SDS011;13107;51.304;6.866;2023-05-07T22:49:45;15.02;;;11.63;;
25127;SDS011;13107;51.304;6.866;2023-05-07T22:53:47;12.73;;;11.43;;
25127;SDS011;13107;51.304;6.866;2023-05-07T22:57:49;15.82;;;12.68;;
25127;SDS011;13107;51.304;6.866;2023-05-07T23:01:50;13.18;;;10.63;;
25127;SDS011;13107;51.304;6.866;2023-05-07T23:05:52;17.45;;;10.80;;
25127;SDS011;13107;51.304;6.866;2023-05-07T23:09:54;11.80;;;10.60;;
25127;SDS011;13107;51.304;6.866;2023-05-07T23:13:56;14.40;;;10.90;;
25127;SDS011;13107;51.304;6.866;2023-05-07T23:17:57;11.27;;;10.13;;
25127;SDS011;13107;51.304;6.866;2023-05-07T23:21:59;14.32;;;10.02;;
25127;SDS011;13107;51.304;6.866;2023-05-07T23:26:01;17.20;;;11.10;;
25127;SDS011;13107;51.304;6.866;2023-05-07T23:30:03;15.15;;;10.30;;
25127;SDS011;13107;51.304;6.866;2023-05-07T23:34:05;11.38;;;9.65;;
25127;SDS011;13107;51.304;6.866;2023-05-07T23:38:07;13.98;;;10.43;;
25127;SDS011;13107;51.304;6.866;2023-05-07T23:42:09;18.58;;;11.27;;
25127;SDS011;13107;51.304;6.866;2023-05-07T23:46:11;11.12;;;10.02;;
25127;SDS011;13107;51.304;6.866;2023-05-07T23:50:12;10.95;;;9.85;;
25127;SDS011;13107;51.304;6.866;2023-05-07T23:54:14;11.02;;;9.75;;
25127;SDS011;13107;51.304;6.866;2023-05-07T23:58:16;12.13;;;10.88;;
